Foxworth, MS (39483)

12:42 PM CST on February 07, 2016 (GMT -0600)
RAWS | | Change Station
CLOSE
Current Station
Personal Weather Station
Location: Foxworth, MS
Elevation: 379 ft
Nearby Weather Stations
Active Advisory: Flood Warning

Elev 379 ft 31.21 °N, 89.92 °W | Updated 19 hours ago

Clear
Clear
60 °F
Feels Like 60 °F
N
6
Wind Variable Wind from WSW
Gusts mph

Today
High -- | Low -- °F
--% Chance of Precip.
Yesterday
High -- | Low -- °F
Precip. -- in
Pressure 30.25 in
Visibility 10.0 miles
Clouds Clear
Dew Point 27 °F
Humidity 29%
Rainfall in
Snow Depth Not available.
6:48 AM 5:39 PM
Waning Crescent, 1% visible
METAR KMCB 071753Z AUTO 00000KT 10SM CLR 13/M04 A3025 RMK AO2 SLP241 T01331039 10133 21022 58022
Pressure 30.25 in
Visibility 10.0 miles
Clouds Clear
Dew Point 27 °F
Humidity 29%
Rainfall in
Snow Depth Not available.
6:48 AM 5:39 PM
Waning Crescent, 1% visible
METAR KMCB 071753Z AUTO 00000KT 10SM CLR 13/M04 A3025 RMK AO2 SLP241 T01331039 10133 21022 58022

10-Day Weather Forecast

Almanac

Astronomy

Feb. 07, 2016 Rise Set
Actual Time
Civil Twilight
Nautical Twilight
Astronomical Twilight
Moon
Length of Visible Light
Length of Day
Tomorrow will be .
, % of the Moon is Illuminated

Today's Extremes

State Highs State Lows

Community

WunderPhotos

Upload Photos

1,891,280 photos uploaded!

WunderBlog® & News

Nearby

Air Quality

  Air Quality AQ Index Pollutant
Not available.

Snow Depth

Station Depth Elevation

Earthquake Activity

City Distance Mag. Time & Date
Minimum magnitude displayed is 2.5.

Coastal Water Temperatures

Place Temperature

Stations

Nearby Weather Stations

Station Location Temp. Windchill Dew Point Humidity Wind Precip. Elev Updated Type
                   

Watches & Warnings

Flood Warning
Issued: 8:55 AM CST Feb. 7, 2016 – National Weather Service


The Flood Warning continues for
the Pearl River near Columbia
* until further notice.
* At 8:15 am Sunday the stage was 18.7 feet.
* Minor flooding is occurring and minor flooding is forecast.
* Flood stage is 17.0 feet.
* Forecast... the river will continue rising to near 19.5 feet by
Tuesday morning.
* Impact... at 18.0 feet... low areas along the river are inundated.



              Flood observed forecast 7 am crest
location stg stg day time Mon Tue Wed crest time date

Lower Pearl River
Columbia 17 18.7 sun 08 am 19.2 19.5 19.5 19.5 06 am 02/09




Lat... Lon 3100 8979 3121 8992 3140 9008 3140 8992
      3124 8981 3100 8969